Anchorage, Alaska
Current Conditions -  °F | °C
As of 8:53 PM on Saturday 25 Oct 2014 (Local Time) from PANC Reporting Station
Scattered Clouds Scattered Clouds  
Wind Chill: 28°   Ceiling: Unl
Heat Index: 28°   Visibility: 10mi
Dew Point: 23°   Wind: 0mph
Humidity: 81%   Direction: NA
Pressure: 29.82"   Gusts: NA
Location:  61.16°N, 150.01°W
Report Text: PANC 260453Z 00000KT 10SM FEW015 SCT050 SCT200 M02/M05 A2982 RMK AO2 SLP100 T10221050
Loading
Personal Weather Stations






























Interactive Weather Map
Tropical Storm Tracking
New forecast layout! Learn more

10-Day Weather Forecast

Advertisements
Track Severe Weather on mobile